Bontekoning — PH9144 — position and weather

sailwx.info

Track history (hours):
 
Tides and Currents Weather Stations Pressure Air Temp Water Temp Dewpoint Dewpoint Depression Visibility Wind Speed Wind Dir Waves Ship Positions

Bontekoning

Last reported at 2014-Aug-29 07:20 UTC. Time now 2014-Sep-02 04:19 UTC.
Position N 36°49' E 027°16'.

; draft 2.6 m.

Type: Sailing vessel. MMSI: 244107000.

Date/timePositionNaut miles runAvg speedWind from/ knotsBaromVisibWave heightAir tempDewpointWater temp
2014-Aug-29 07:20N 36°49' E 027°16'14 0.5
2014-Aug-28 05:12N 36°45' E 026°59'0 0.0
2014-Aug-28 04:04N 36°45' E 026°59'0 0.0
2014-Aug-28 02:27N 36°45' E 026°59'0 0.0
2014-Aug-28 01:31N 36°45' E 026°59'0 0.0
2014-Aug-28 00:32N 36°45' E 026°59'0 0.0
2014-Aug-27 23:16N 36°45' E 026°59'0 0.0
2014-Aug-27 22:32N 36°45' E 026°59'0 0.0
2014-Aug-27 12:30N 36°45' E 026°59'4 1.5
2014-Aug-27 09:29N 36°43' E 027°04'14 7.0
2014-Aug-27 07:31N 36°39' E 027°21'8 7.3
2014-Aug-27 06:24N 36°37' E 027°30'6 7.4
2014-Aug-27 05:31N 36°35' E 027°38'  
Track history (hours):
 
Tides and Currents Weather Stations Pressure Air Temp Water Temp Dewpoint Dewpoint Depression Visibility Wind Speed Wind Dir Waves Ship Positions

Bontekoning

Last reported at 2014-Aug-29 07:20 UTC. Time now 2014-Sep-02 04:19 UTC.
Position N 36°49' E 027°16'.

; draft 2.6 m.

Type: Sailing vessel. MMSI: 244107000.

Date/timePositionNaut miles runAvg speedWind from/ knotsBaromVisibWave heightAir tempDewpointWater temp
2014-Aug-29 07:20N 36°49' E 027°16'14 0.5
2014-Aug-28 05:12N 36°45' E 026°59'0 0.0
2014-Aug-28 04:04N 36°45' E 026°59'0 0.0
2014-Aug-28 02:27N 36°45' E 026°59'0 0.0
2014-Aug-28 01:31N 36°45' E 026°59'0 0.0
2014-Aug-28 00:32N 36°45' E 026°59'0 0.0
2014-Aug-27 23:16N 36°45' E 026°59'0 0.0
2014-Aug-27 22:32N 36°45' E 026°59'0 0.0
2014-Aug-27 12:30N 36°45' E 026°59'4 1.5
2014-Aug-27 09:29N 36°43' E 027°04'14 7.0
2014-Aug-27 07:31N 36°39' E 027°21'8 7.3
2014-Aug-27 06:24N 36°37' E 027°30'6 7.4
2014-Aug-27 05:31N 36°35' E 027°38'  

Dump ship's entire track history